createdAt,value
2018-04-26T00:00:54.510Z,6.00
2018-04-26T00:03:22.116Z,5.93
2018-04-26T00:05:49.719Z,6.20
2018-04-26T00:08:17.329Z,5.60
2018-04-26T00:10:45.697Z,6.17
2018-04-26T00:13:14.090Z,5.77
2018-04-26T00:15:41.685Z,5.60
2018-04-26T00:18:09.301Z,5.70
2018-04-26T00:20:37.659Z,5.97
2018-04-26T00:23:05.272Z,5.50
2018-04-26T00:25:32.867Z,6.17
2018-04-26T00:28:00.463Z,4.90
2018-04-26T00:30:28.846Z,5.30
2018-04-26T00:32:56.456Z,5.37
2018-04-26T00:35:24.086Z,5.80
2018-04-26T00:37:51.688Z,5.23
2018-04-26T00:40:19.301Z,5.70
2018-04-26T00:42:46.893Z,5.73
2018-04-26T00:45:14.507Z,5.50
2018-04-26T00:47:42.102Z,6.80
2018-04-26T00:50:09.693Z,5.20
2018-04-26T00:52:37.304Z,6.03
2018-04-26T00:55:04.904Z,6.77
2018-04-26T00:57:32.517Z,6.03
2018-04-26T01:00:00.127Z,5.87
2018-04-26T01:02:27.748Z,5.47
2018-04-26T01:04:55.353Z,5.50
2018-04-26T01:07:22.946Z,5.20
2018-04-26T01:09:51.329Z,4.60
2018-04-26T01:12:19.684Z,4.93
2018-04-26T01:14:47.298Z,5.07
2018-04-26T01:17:14.885Z,4.43
2018-04-26T01:19:42.503Z,4.43
2018-04-26T01:22:10.100Z,4.47
2018-04-26T01:24:37.685Z,4.90
2018-04-26T01:27:06.064Z,4.40
2018-04-26T01:29:33.649Z,5.07
2018-04-26T01:32:02.023Z,4.97
2018-04-26T01:34:30.381Z,4.63
2018-04-26T01:37:09.969Z,4.87
2018-04-26T01:39:37.563Z,4.30
2018-04-26T01:42:06.808Z,4.10
2018-04-26T01:44:34.409Z,4.33
2018-04-26T01:47:02.002Z,4.20
2018-04-26T01:49:29.615Z,4.30
2018-04-26T01:51:57.225Z,4.40
2018-04-26T01:54:25.612Z,4.20
2018-04-26T01:56:53.986Z,5.17
2018-04-26T01:59:22.369Z,4.50
2018-04-26T02:01:50.720Z,4.40
2018-04-26T02:04:18.305Z,4.50
2018-04-26T02:06:46.689Z,4.73
2018-04-26T02:09:15.053Z,4.93
2018-04-26T02:11:42.681Z,4.60
2018-04-26T02:14:10.283Z,4.80
2018-04-26T02:16:37.931Z,4.47
2018-04-26T02:19:05.529Z,4.50
2018-04-26T02:21:33.162Z,4.87
2018-04-26T02:24:01.534Z,4.90
2018-04-26T02:26:29.142Z,4.43
2018-04-26T02:28:56.757Z,5.23
2018-04-26T02:31:24.344Z,4.90
2018-04-26T02:33:51.962Z,5.47
2018-04-26T02:36:19.555Z,4.90
2018-04-26T02:38:47.931Z,5.57
2018-04-26T02:41:15.521Z,4.67
2018-04-26T02:43:43.134Z,5.80
2018-04-26T02:46:10.732Z,5.03
2018-04-26T02:48:38.325Z,4.57
2018-04-26T02:51:05.978Z,4.90
2018-04-26T02:53:33.575Z,5.30
2018-04-26T02:56:01.195Z,5.77
2018-04-26T02:58:28.836Z,4.90
2018-04-26T03:00:56.480Z,5.07
2018-04-26T03:03:24.829Z,4.50
2018-04-26T03:05:52.461Z,5.67
2018-04-26T03:08:20.149Z,5.13
2018-04-26T03:10:47.746Z,5.03
2018-04-26T03:13:16.121Z,5.10
2018-04-26T03:15:43.761Z,5.33
2018-04-26T03:18:11.391Z,5.10
2018-04-26T03:20:38.976Z,5.77
2018-04-26T03:23:06.594Z,6.00
2018-04-26T03:25:34.185Z,5.00
2018-04-26T03:28:01.812Z,5.37
2018-04-26T03:30:29.430Z,5.27
2018-04-26T03:32:57.793Z,5.80
2018-04-26T03:35:25.413Z,5.90
2018-04-26T03:37:53.001Z,6.30
2018-04-26T03:40:20.624Z,5.50
2018-04-26T03:42:48.221Z,5.93
2018-04-26T03:45:15.817Z,6.00
2018-04-26T03:47:44.215Z,5.87
2018-04-26T03:50:11.853Z,6.10
2018-04-26T03:52:39.501Z,5.50
2018-04-26T03:55:07.102Z,5.73
2018-04-26T03:57:34.716Z,5.77
2018-04-26T04:00:14.350Z,5.00
2018-04-26T04:02:53.937Z,5.50
2018-04-26T04:05:34.106Z,5.67
2018-04-26T04:08:01.719Z,5.33
2018-04-26T04:10:29.312Z,4.87
2018-04-26T04:12:56.960Z,5.67
2018-04-26T04:15:25.317Z,5.43
2018-04-26T04:17:52.911Z,4.93
2018-04-26T04:20:20.532Z,5.30
2018-04-26T04:22:48.113Z,4.80
2018-04-26T04:25:16.508Z,5.27
2018-04-26T04:27:44.868Z,4.80
2018-04-26T04:30:13.298Z,5.07
2018-04-26T04:32:40.889Z,5.63
2018-04-26T04:35:08.485Z,4.10
2018-04-26T04:37:36.108Z,4.77
2018-04-26T04:40:03.699Z,4.97
2018-04-26T04:42:32.081Z,4.10
2018-04-26T04:45:00.434Z,4.47
2018-04-26T04:47:28.022Z,4.50
2018-04-26T04:49:56.399Z,3.93
2018-04-26T04:52:24.754Z,4.60
2018-04-26T04:54:52.355Z,4.40
2018-04-26T04:57:19.944Z,5.37
2018-04-26T04:59:47.532Z,5.10
2018-04-26T05:02:15.149Z,4.27
2018-04-26T05:04:42.745Z,4.90
2018-04-26T05:07:10.362Z,4.83
2018-04-26T05:09:37.965Z,4.60
2018-04-26T05:12:05.548Z,5.07
2018-04-26T05:14:33.916Z,6.37
2018-04-26T05:17:01.514Z,4.83
2018-04-26T05:22:22.266Z,4.47
2018-04-26T05:24:49.884Z,4.70
2018-04-26T05:27:17.468Z,5.43
2018-04-26T05:29:45.077Z,4.73
2018-04-26T05:32:12.684Z,4.57
2018-04-26T05:34:40.287Z,4.90
2018-04-26T05:37:07.900Z,4.60
2018-04-26T05:39:35.510Z,5.60
2018-04-26T05:42:03.121Z,4.93
2018-04-26T05:44:30.722Z,5.27
2018-04-26T05:46:58.359Z,5.30
2018-04-26T05:49:25.990Z,4.50
2018-04-26T05:51:53.577Z,4.50
2018-04-26T05:54:21.196Z,4.30
2018-04-26T05:56:49.537Z,3.70
2018-04-26T05:59:17.158Z,5.00
2018-04-26T06:01:44.751Z,4.20
2018-04-26T06:04:12.372Z,4.30
2018-04-26T06:06:39.966Z,5.07
2018-04-26T06:09:07.564Z,4.10
2018-04-26T06:11:35.181Z,4.10
2018-04-26T06:14:02.767Z,3.60
2018-04-26T06:16:30.385Z,4.00
2018-04-26T06:18:57.980Z,4.57
2018-04-26T06:21:25.576Z,3.80
2018-04-26T06:23:53.958Z,4.10
2018-04-26T06:26:22.308Z,3.60
2018-04-26T06:28:49.929Z,4.20
2018-04-26T06:31:17.516Z,5.00
2018-04-26T06:33:45.132Z,5.20
2018-04-26T06:36:12.760Z,3.50
2018-04-26T06:38:40.356Z,4.40
2018-04-26T06:41:07.968Z,3.83
2018-04-26T06:43:35.564Z,3.30
2018-04-26T06:46:03.944Z,4.00
2018-04-26T06:48:31.537Z,4.53
2018-04-26T06:50:59.180Z,3.67
2018-04-26T06:53:26.896Z,4.77
2018-04-26T06:55:54.432Z,5.10
2018-04-26T06:58:22.073Z,3.97
2018-04-26T07:00:49.712Z,3.27
2018-04-26T07:03:17.330Z,4.17
2018-04-26T07:05:44.939Z,3.30
2018-04-26T07:08:12.601Z,3.20
2018-04-26T07:10:40.252Z,2.73
2018-04-26T07:13:08.596Z,3.00
2018-04-26T07:15:36.209Z,8.23
2018-04-26T07:18:03.797Z,5.00
2018-04-26T07:20:31.409Z,3.20
2018-04-26T07:22:59.772Z,4.60
2018-04-26T07:25:28.167Z,3.73
2018-04-26T07:27:56.514Z,2.90
2018-04-26T07:30:24.100Z,3.90
2018-04-26T07:32:52.472Z,9.93
2018-04-26T07:35:20.817Z,3.10
2018-04-26T07:37:48.418Z,2.90
2018-04-26T07:40:16.789Z,5.67
2018-04-26T07:42:45.163Z,3.67
2018-04-26T07:45:13.511Z,4.20
2018-04-26T07:47:41.866Z,5.67
2018-04-26T07:50:09.474Z,4.33
2018-04-26T07:52:37.838Z,5.13
2018-04-26T07:55:05.475Z,4.60
2018-04-26T07:57:33.077Z,4.40
2018-04-26T08:00:01.461Z,4.63
2018-04-26T08:02:29.814Z,4.43
2018-04-26T08:04:57.409Z,4.37
2018-04-26T08:07:25.784Z,3.73
2018-04-26T08:09:54.141Z,4.57
2018-04-26T08:12:21.757Z,3.90
2018-04-26T08:14:49.333Z,3.63
2018-04-26T08:17:16.944Z,3.90
2018-04-26T08:19:45.378Z,4.77
2018-04-26T08:22:12.917Z,4.03
2018-04-26T08:24:40.529Z,4.60
2018-04-26T08:27:08.889Z,4.33
2018-04-26T08:29:36.505Z,4.60
2018-04-26T08:32:04.104Z,5.07
2018-04-26T08:34:31.731Z,4.93
2018-04-26T08:36:59.327Z,4.87
2018-04-26T08:39:26.916Z,4.90
2018-04-26T08:41:55.289Z,4.30
2018-04-26T08:44:23.646Z,4.50
2018-04-26T08:46:51.277Z,5.17
2018-04-26T08:49:18.872Z,4.80
2018-04-26T08:51:46.484Z,5.00
2018-04-26T08:54:14.088Z,4.57
2018-04-26T08:56:41.692Z,4.40
2018-04-26T08:59:09.304Z,5.87
2018-04-26T09:01:36.897Z,4.77
2018-04-26T09:04:05.291Z,4.93
2018-04-26T09:06:32.873Z,5.10
2018-04-26T09:09:00.492Z,4.97
2018-04-26T09:11:28.850Z,4.13
2018-04-26T09:13:56.435Z,3.77
2018-04-26T09:16:24.809Z,3.80
2018-04-26T09:18:53.162Z,4.07
2018-04-26T09:21:20.776Z,4.10
2018-04-26T09:23:48.379Z,4.20
2018-04-26T09:26:15.997Z,3.90
2018-04-26T09:28:43.586Z,4.43
2018-04-26T09:31:11.479Z,4.10
2018-04-26T09:33:39.092Z,3.57
2018-04-26T09:36:06.683Z,3.90
2018-04-26T09:38:34.295Z,3.13
2018-04-26T09:41:01.885Z,3.80
2018-04-26T09:43:29.495Z,2.83
2018-04-26T09:45:57.864Z,3.00
2018-04-26T09:48:25.453Z,2.77
2018-04-26T09:50:53.068Z,2.90
2018-04-26T09:53:20.671Z,2.90
2018-04-26T09:55:48.333Z,2.90
2018-04-26T09:58:16.684Z,2.97
2018-04-26T10:00:44.332Z,2.97
2018-04-26T10:03:11.936Z,2.60
2018-04-26T10:05:41.320Z,2.27
2018-04-26T10:08:09.702Z,3.20
2018-04-26T10:10:38.065Z,2.33
2018-04-26T10:13:06.455Z,2.53
2018-04-26T10:15:34.819Z,2.60
2018-04-26T10:18:03.237Z,1.93
2018-04-26T10:20:30.848Z,2.43
2018-04-26T10:22:58.432Z,2.00
2018-04-26T10:25:26.859Z,2.50
2018-04-26T10:27:54.465Z,2.53
2018-04-26T10:30:22.857Z,2.60
2018-04-26T10:32:50.454Z,3.17
2018-04-26T10:35:18.166Z,2.70
2018-04-26T10:37:45.740Z,4.20
2018-04-26T10:40:14.119Z,2.97
2018-04-26T10:42:42.504Z,3.57
2018-04-26T10:45:10.101Z,2.83
2018-04-26T10:47:37.725Z,2.90
2018-04-26T10:50:05.308Z,2.90
2018-04-26T10:52:32.931Z,3.00
2018-04-26T10:55:01.297Z,2.90
2018-04-26T10:57:28.916Z,3.10
2018-04-26T10:59:56.540Z,2.23
2018-04-26T11:02:24.902Z,2.10
2018-04-26T11:04:53.289Z,2.00
2018-04-26T11:07:21.673Z,1.73
2018-04-26T11:09:50.071Z,2.03
2018-04-26T11:12:17.672Z,1.77
2018-04-26T11:14:45.275Z,2.10
2018-04-26T11:17:13.746Z,1.70
2018-04-26T11:19:41.288Z,1.80
2018-04-26T11:22:08.921Z,1.70
2018-04-26T11:24:36.529Z,1.70
2018-04-26T11:27:04.918Z,1.87
2018-04-26T11:29:32.536Z,1.70
2018-04-26T11:32:00.130Z,2.37
2018-04-26T11:34:28.518Z,2.57
2018-04-26T11:36:56.116Z,1.83
2018-04-26T11:39:23.751Z,2.10
2018-04-26T11:41:51.393Z,1.83
2018-04-26T11:44:19.780Z,1.93
2018-04-26T11:46:48.153Z,1.70
2018-04-26T11:49:15.757Z,1.80
2018-04-26T11:51:43.367Z,1.73
2018-04-26T11:54:11.744Z,2.07
2018-04-26T11:56:40.137Z,2.03
2018-04-26T11:59:07.725Z,2.30
2018-04-26T12:01:35.352Z,2.00
2018-04-26T12:04:03.709Z,2.00
2018-04-26T12:06:31.314Z,1.83
2018-04-26T12:09:04.788Z,1.50
2018-04-26T12:11:33.143Z,1.43
2018-04-26T12:14:00.761Z,1.67
2018-04-26T12:16:28.352Z,1.93
2018-04-26T12:18:55.944Z,1.90
2018-04-26T12:21:24.321Z,1.83
2018-04-26T12:23:52.691Z,1.87
2018-04-26T12:26:21.082Z,2.50
2018-04-26T12:28:49.435Z,2.17
2018-04-26T12:31:17.068Z,1.67
2018-04-26T12:33:44.748Z,1.90
2018-04-26T12:36:12.356Z,2.00
2018-04-26T12:38:39.989Z,1.60
2018-04-26T12:41:08.348Z,1.60
2018-04-26T12:43:35.981Z,1.57
2018-04-26T12:46:03.579Z,1.80
2018-04-26T12:48:31.167Z,2.30
2018-04-26T12:50:59.585Z,2.30
2018-04-26T12:53:27.204Z,1.60
2018-04-26T12:55:55.602Z,1.70
2018-04-26T12:58:23.204Z,2.40
2018-04-26T13:00:50.828Z,1.50
2018-04-26T13:03:18.421Z,1.70
2018-04-26T13:05:46.015Z,27.07
2018-04-26T13:08:14.392Z,2.30
2018-04-26T13:10:42.758Z,1.93
2018-04-26T13:13:10.388Z,1.37
2018-04-26T13:15:37.986Z,1.27
2018-04-26T13:18:06.390Z,1.80
2018-04-26T13:20:33.988Z,2.03
2018-04-26T13:23:01.593Z,1.50
2018-04-26T13:25:29.971Z,1.40
2018-04-26T13:27:58.377Z,1.20
2018-04-26T13:30:25.993Z,1.63
2018-04-26T13:32:53.616Z,2.30
2018-04-26T13:35:21.236Z,1.57
2018-04-26T13:37:49.591Z,1.40
2018-04-26T13:40:17.192Z,1.80
2018-04-26T13:42:44.821Z,1.73
2018-04-26T13:45:12.415Z,1.80
2018-04-26T13:47:40.032Z,2.10
2018-04-26T13:50:07.641Z,1.40
2018-04-26T13:52:35.285Z,1.90
2018-04-26T13:55:03.649Z,1.60
2018-04-26T13:57:32.026Z,1.60
2018-04-26T14:00:00.433Z,2.03
2018-04-26T14:02:28.058Z,1.37
2018-04-26T14:04:55.677Z,1.80
2018-04-26T14:07:23.279Z,1.43
2018-04-26T14:09:50.904Z,2.00
2018-04-26T14:12:18.504Z,1.77
2018-04-26T14:14:46.101Z,1.60
2018-04-26T14:17:13.709Z,1.37
2018-04-26T14:19:41.305Z,1.80
2018-04-26T14:22:08.924Z,1.60
2018-04-26T14:24:36.522Z,3.93
2018-04-26T14:27:04.151Z,1.70
2018-04-26T14:29:31.768Z,1.60
2018-04-26T14:31:59.390Z,1.70
2018-04-26T14:34:27.772Z,1.53
2018-04-26T14:36:56.128Z,1.50
2018-04-26T14:39:23.745Z,1.50
2018-04-26T14:41:51.331Z,1.43
2018-04-26T14:44:18.956Z,1.20
2018-04-26T14:46:46.573Z,1.40
2018-04-26T14:49:14.159Z,1.87
2018-04-26T14:51:42.550Z,1.37
2018-04-26T14:54:10.227Z,1.57
2018-04-26T14:56:37.802Z,1.17
2018-04-26T14:59:05.384Z,1.60
2018-04-26T15:01:33.005Z,1.60
2018-04-26T15:04:00.606Z,1.87
2018-04-26T15:06:28.238Z,1.77
2018-04-26T15:08:55.845Z,1.50
2018-04-26T15:11:24.212Z,1.23
2018-04-26T15:13:51.858Z,1.00
2018-04-26T15:16:19.467Z,1.57
2018-04-26T15:18:47.872Z,1.80
2018-04-26T15:21:15.469Z,1.60
2018-04-26T15:23:43.075Z,1.50
2018-04-26T15:26:10.706Z,1.53
2018-04-26T15:28:38.304Z,1.03
2018-04-26T15:31:05.911Z,1.93
2018-04-26T15:33:33.504Z,1.80
2018-04-26T15:36:01.884Z,1.40
2018-04-26T15:38:32.297Z,1.40
2018-04-26T15:41:00.661Z,1.63
2018-04-26T15:43:28.280Z,1.60
2018-04-26T15:45:55.889Z,1.60
2018-04-26T15:48:23.548Z,1.30
2018-04-26T15:50:52.072Z,1.60
2018-04-26T15:53:31.515Z,1.53
2018-04-26T15:56:10.973Z,1.60
2018-04-26T16:02:19.423Z,1.10
2018-04-26T16:05:02.943Z,1.20
2018-04-26T16:07:49.968Z,1.50
2018-04-26T16:10:29.365Z,1.33
2018-04-26T16:13:14.543Z,1.20
2018-04-26T16:15:59.946Z,1.40
2018-04-26T16:18:44.147Z,1.30
2018-04-26T16:21:29.484Z,1.30
2018-04-26T16:27:40.884Z,1.70
2018-04-26T16:30:20.739Z,1.30
2018-04-26T16:33:05.433Z,1.37
2018-04-26T16:35:44.931Z,1.17
2018-04-26T16:38:24.299Z,1.27
2018-04-26T16:40:51.945Z,1.60
2018-04-26T16:43:19.530Z,1.70
2018-04-26T16:45:47.146Z,1.30
2018-04-26T16:48:14.747Z,1.60
2018-04-26T16:50:42.359Z,1.40
2018-04-26T16:53:09.969Z,1.40
2018-04-26T16:55:37.557Z,1.83
2018-04-26T16:58:05.178Z,1.40
2018-04-26T17:00:32.772Z,1.50
2018-04-26T17:03:00.380Z,1.40
2018-04-26T17:05:28.001Z,1.40
2018-04-26T17:07:55.594Z,1.30
2018-04-26T17:10:23.211Z,1.70
2018-04-26T17:12:50.807Z,1.47
2018-04-26T17:15:18.529Z,1.50
2018-04-26T17:17:46.135Z,2.00
2018-04-26T17:20:14.500Z,1.70
2018-04-26T17:22:42.877Z,1.70
2018-04-26T17:25:10.467Z,1.73
2018-04-26T17:27:38.104Z,1.83
2018-04-26T17:30:06.493Z,1.57
2018-04-26T17:32:34.849Z,2.10
2018-04-26T17:35:02.460Z,1.50
2018-04-26T17:37:30.057Z,1.80
2018-04-26T17:39:57.677Z,1.10
2018-04-26T17:42:25.359Z,1.60
2018-04-26T17:44:53.665Z,1.50
2018-04-26T17:47:21.288Z,1.53
2018-04-26T17:49:48.885Z,1.53
2018-04-26T17:52:16.513Z,1.60
2018-04-26T17:54:44.100Z,1.30
2018-04-26T17:57:11.687Z,1.40
2018-04-26T17:59:40.078Z,1.20
2018-04-26T18:02:08.431Z,1.30
2018-04-26T18:04:36.057Z,1.20
2018-04-26T18:07:03.644Z,1.23
2018-04-26T18:09:31.252Z,1.43
2018-04-26T18:11:58.924Z,1.40
2018-04-26T18:14:26.885Z,1.10
2018-04-26T18:16:54.495Z,1.57
2018-04-26T18:19:22.075Z,1.90
2018-04-26T18:21:49.815Z,1.80
2018-04-26T18:24:17.469Z,1.57
2018-04-26T18:26:45.068Z,2.20
2018-04-26T18:29:13.508Z,2.10
2018-04-26T18:31:41.100Z,1.50
2018-04-26T18:34:08.689Z,1.70
2018-04-26T18:36:37.069Z,1.80
2018-04-26T18:39:04.687Z,1.57
2018-04-26T18:41:32.306Z,1.23
2018-04-26T18:43:59.887Z,1.30
2018-04-26T18:46:27.478Z,1.27
2018-04-26T18:48:55.088Z,1.60
2018-04-26T18:51:22.732Z,1.57
2018-04-26T18:53:51.106Z,1.20
2018-04-26T18:56:19.455Z,1.77
2018-04-26T18:58:47.048Z,1.40
2018-04-26T19:01:27.950Z,1.70
2018-04-26T19:03:55.536Z,1.50
2018-04-26T19:06:23.908Z,1.80
2018-04-26T19:08:51.637Z,1.50
2018-04-26T19:11:19.201Z,1.43
2018-04-26T19:13:46.796Z,1.70
2018-04-26T19:16:14.383Z,1.80
2018-04-26T19:18:42.767Z,2.00
2018-04-26T19:21:12.370Z,1.97
2018-04-26T19:23:40.001Z,1.77
2018-04-26T19:26:07.582Z,1.90
2018-04-26T19:28:35.196Z,1.90
2018-04-26T19:31:02.775Z,1.90
2018-04-26T19:33:30.379Z,2.00
2018-04-26T19:35:59.808Z,1.70
2018-04-26T19:38:27.411Z,1.60
2018-04-26T19:41:12.667Z,1.80
2018-04-26T19:43:41.281Z,1.87
2018-04-26T19:46:08.876Z,2.20
2018-04-26T19:48:39.271Z,2.00
2018-04-26T19:51:12.249Z,2.47
2018-04-26T19:53:39.855Z,2.33
2018-04-26T19:56:08.204Z,2.40
2018-04-26T19:58:35.786Z,1.83
2018-04-26T20:01:04.157Z,1.80
2018-04-26T20:03:36.414Z,2.43
2018-04-26T20:06:04.042Z,2.10
2018-04-26T20:08:31.625Z,2.33
2018-04-26T20:10:59.213Z,1.83
2018-04-26T20:13:27.599Z,2.00
2018-04-26T20:15:55.940Z,2.10
2018-04-26T20:18:23.569Z,2.33
2018-04-26T20:20:51.379Z,1.87
2018-04-26T20:23:18.943Z,1.73
2018-04-26T20:25:46.523Z,2.07
2018-04-26T20:28:14.959Z,1.90
2018-04-26T20:30:43.279Z,2.00
2018-04-26T20:33:11.616Z,2.13
2018-04-26T20:35:39.231Z,2.00
2018-04-26T20:38:06.812Z,1.70
2018-04-26T20:40:34.424Z,2.23
2018-04-26T20:43:02.035Z,2.00
2018-04-26T20:45:29.627Z,2.80
2018-04-26T20:47:57.229Z,2.40
2018-04-26T20:50:25.572Z,2.47
2018-04-26T20:52:53.176Z,2.57
2018-04-26T20:55:21.543Z,2.07
2018-04-26T20:57:49.923Z,2.33
2018-04-26T21:00:22.448Z,2.03
2018-04-26T21:02:50.105Z,2.40
2018-04-26T21:05:17.714Z,2.40
2018-04-26T21:07:46.092Z,2.40
2018-04-26T21:10:14.497Z,2.63
2018-04-26T21:12:42.124Z,2.40
2018-04-26T21:15:09.767Z,2.80
2018-04-26T21:17:37.391Z,2.13
2018-04-26T21:20:05.081Z,2.57
2018-04-26T21:22:32.685Z,2.33
2018-04-26T21:25:01.069Z,2.30
2018-04-26T21:27:29.477Z,2.50
2018-04-26T21:29:57.094Z,2.43
2018-04-26T21:32:35.617Z,2.47
2018-04-26T21:35:04.000Z,2.80
2018-04-26T21:37:32.531Z,2.17
2018-04-26T21:40:00.173Z,3.00
2018-04-26T21:42:27.858Z,2.53
2018-04-26T21:44:55.505Z,2.57
2018-04-26T21:47:23.201Z,2.57
2018-04-26T21:49:56.652Z,2.83
2018-04-26T21:52:29.950Z,2.43
2018-04-26T21:55:03.333Z,2.50
2018-04-26T21:57:37.415Z,2.93
2018-04-26T22:00:11.469Z,2.50
2018-04-26T22:02:38.594Z,2.60
2018-04-26T22:05:12.608Z,2.63
2018-04-26T22:07:40.244Z,2.23
2018-04-26T22:10:09.415Z,3.17
2018-04-26T22:12:37.050Z,2.57
2018-04-26T22:15:04.665Z,2.90
2018-04-26T22:17:33.068Z,2.90
2018-04-26T22:20:01.452Z,3.00
2018-04-26T22:22:29.861Z,3.03
2018-04-26T22:24:57.482Z,3.17
2018-04-26T22:27:25.867Z,3.30
2018-04-26T22:29:54.264Z,3.20
2018-04-26T22:32:21.919Z,3.20
2018-04-26T22:34:50.321Z,3.00
2018-04-26T22:37:17.956Z,4.30
2018-04-26T22:39:46.334Z,2.93
2018-04-26T22:42:14.744Z,3.20
2018-04-26T22:44:42.367Z,3.13
2018-04-26T22:47:10.773Z,3.53
2018-04-26T22:49:38.476Z,3.30
2018-04-26T22:52:06.096Z,3.73
2018-04-26T22:54:33.732Z,3.60
2018-04-26T22:57:02.126Z,3.13
2018-04-26T22:59:29.769Z,3.73
2018-04-26T23:02:02.165Z,3.30
2018-04-26T23:04:29.819Z,4.03
2018-04-26T23:06:58.204Z,4.10
2018-04-26T23:09:25.817Z,3.93
2018-04-26T23:11:53.742Z,3.80
2018-04-26T23:14:21.373Z,4.00
2018-04-26T23:16:49.776Z,4.53
2018-04-26T23:19:17.391Z,4.03
2018-04-26T23:21:45.852Z,4.07
2018-04-26T23:24:13.461Z,3.50
2018-04-26T23:26:41.841Z,3.70
2018-04-26T23:29:10.245Z,3.53
2018-04-26T23:31:37.860Z,3.97
2018-04-26T23:34:05.609Z,4.00
2018-04-26T23:36:33.235Z,4.10
2018-04-26T23:39:00.881Z,3.10
2018-04-26T23:41:29.600Z,4.20
2018-04-26T23:43:57.215Z,3.70
2018-04-26T23:46:25.648Z,3.83
2018-04-26T23:48:53.269Z,3.63
2018-04-26T23:51:21.684Z,4.03
2018-04-26T23:53:49.297Z,3.30
2018-04-26T23:56:17.704Z,4.60
2018-04-26T23:58:45.339Z,4.20
